This is the latest recevied weather packets stored in our database for station/object SV9FBP. If no packets are shown the sender has not sent any weather packets the latest 10 day(s).
| Time | Temp. | Humidity | Pressure | Rain* | Wind** | Luminosity | Snow |
|---|---|---|---|---|---|---|---|
| 1777548820 | 25.56° C | 43% | 1014.3 hPa | 0 mm | - | - | - |
| 1777547918 | 25.56° C | 42% | 1014.3 hPa | 0 mm | - | - | - |
| 1777545211 | 24.44° C | 45% | 1014.1 hPa | 0 mm | - | - | - |
| 1777544312 | 23.33° C | 51% | 1014.2 hPa | 0 mm | - | - | - |
| 1777541603 | 22.78° C | 42% | 1014.5 hPa | 0 mm | - | - | - |
| 1777540700 | 22.78° C | 44% | 1014.6 hPa | 0 mm | - | - | - |
| 1777537092 | 21.11° C | 52% | 1014.6 hPa | 0 mm | - | - | - |
| 1777536191 | 21.11° C | 51% | 1014.4 hPa | 0 mm | - | - | - |
| 1777534386 | 21.11° C | 54% | 1014.3 hPa | 0 mm | - | - | - |
| 1777533483 | 21.11° C | 51% | 1014 hPa | 0 mm | - | - | - |
| 1777532582 | 21.11° C | 50% | 1013.8 hPa | 0 mm | - | - | - |
| 1777530777 | 20.56° C | 47% | 1014 hPa | 0 mm | - | - | - |
| 1777529875 | 20° C | 50% | 1013.8 hPa | 0 mm | - | - | - |
| 1777528973 | 19.44° C | 50% | 1013.7 hPa | 0 mm | - | - | - |
| 1777528071 | 18.89° C | 51% | 1013.7 hPa | 0 mm | - | - | - |
| 1777527169 | 18.33° C | 54% | 1013.7 hPa | 0 mm | - | - | - |
| 1777526266 | 17.22° C | 61% | 1013.5 hPa | 0 mm | - | - | - |
| 1777525364 | 17.22° C | 60% | 1013.7 hPa | 0 mm | - | - | - |
| 1777524462 | 16.67° C | 59% | 1013.6 hPa | 0 mm | - | - | - |
| 1777523560 | 16.67° C | 57% | 1013.8 hPa | 0 mm | - | - | - |
| 1777522658 | 17.22° C | 54% | 1013.5 hPa | 0 mm | - | - | - |
| 1777521756 | 17.22° C | 53% | 1013.4 hPa | 0 mm | - | - | - |
| 1777520854 | 16.67° C | 54% | 1013.2 hPa | 0 mm | - | - | - |
| 1777519952 | 16.67° C | 55% | 1013.1 hPa | 0 mm | - | - | - |
| 1777519050 | 16.11° C | 59% | 1013.1 hPa | 0 mm | - | - | - |
* Rain latest hour (hover to see other rain measurements)
** Current wind speed in m/s (hover to see current wind gust speed)